createdAt,value
2022-08-12T00:00:49.967Z,38.89
2022-08-12T00:03:35.382Z,38.97
2022-08-12T00:06:22.244Z,38.96
2022-08-12T00:09:07.448Z,39.45
2022-08-12T00:11:53.371Z,39.38
2022-08-12T00:14:39.789Z,39.54
2022-08-12T00:17:26.104Z,39.62
2022-08-12T00:20:11.897Z,39.64
2022-08-12T00:22:59.819Z,39.54
2022-08-12T00:26:21.758Z,39.24
2022-08-12T00:29:02.569Z,39.76
2022-08-12T00:31:47.735Z,39.57
2022-08-12T00:34:36.543Z,39.91
2022-08-12T00:37:25.047Z,39.72
2022-08-12T00:40:11.988Z,39.83
2022-08-12T00:42:42.595Z,40.11
2022-08-12T00:45:10.205Z,40.33
2022-08-12T00:47:39.399Z,40.38
2022-08-12T00:50:06.953Z,40.32
2022-08-12T00:52:35.228Z,40.12
2022-08-12T00:55:03.325Z,40.18
2022-08-12T00:57:36.761Z,40.32
2022-08-12T01:00:10.595Z,40.52
2022-08-12T01:02:40.643Z,40.95
2022-08-12T01:05:33.519Z,40.80
2022-08-12T01:08:18.743Z,40.78
2022-08-12T01:11:05.840Z,40.85
2022-08-12T01:13:35.279Z,40.97
2022-08-12T01:16:05.027Z,41.05
2022-08-12T01:18:35.178Z,41.06
2022-08-12T01:21:34.245Z,41.17
2022-08-12T01:24:31.405Z,41.68
2022-08-12T01:27:00.201Z,41.92
2022-08-12T01:29:32.642Z,41.71
2022-08-12T01:32:05.600Z,41.71
2022-08-12T01:34:37.361Z,41.92
2022-08-12T01:37:07.628Z,41.91
2022-08-12T01:40:34.914Z,41.91
2022-08-12T01:42:39.644Z,41.95
2022-08-12T01:45:07.297Z,42.17
2022-08-12T01:48:13.034Z,42.08
2022-08-12T01:50:46.247Z,42.36
2022-08-12T01:53:16.053Z,42.74
2022-08-12T01:55:45.445Z,42.24
2022-08-12T01:58:18.821Z,42.82
2022-08-12T02:00:59.282Z,42.96
2022-08-12T02:04:06.027Z,42.89
2022-08-12T02:07:12.563Z,43.22
2022-08-12T02:10:51.284Z,43.55
2022-08-12T02:13:08.740Z,43.93
2022-08-12T02:15:49.699Z,43.92
2022-08-12T02:18:51.527Z,44.20
2022-08-12T02:21:49.897Z,44.04
2022-08-12T02:24:20.540Z,44.15
2022-08-12T02:26:49.550Z,44.26
2022-08-12T02:29:18.848Z,44.29
2022-08-12T02:31:46.759Z,44.28
2022-08-12T02:34:16.512Z,44.16
2022-08-12T02:36:45.596Z,44.69
2022-08-12T02:39:16.409Z,44.82
2022-08-12T02:41:46.166Z,44.73
2022-08-12T02:44:15.300Z,44.77
2022-08-12T02:46:49.131Z,45.00
2022-08-12T02:49:39.969Z,45.33
2022-08-12T02:52:08.909Z,45.76
2022-08-12T02:54:37.412Z,45.59
2022-08-12T02:57:06.214Z,45.36
2022-08-12T02:59:35.620Z,45.25
2022-08-12T03:02:03.864Z,45.42
2022-08-12T03:04:46.486Z,45.37
2022-08-12T03:07:32.577Z,45.61
2022-08-12T03:10:16.140Z,45.63
2022-08-12T03:12:49.903Z,45.74
2022-08-12T03:15:22.000Z,45.77
2022-08-12T03:18:26.321Z,46.09
2022-08-12T03:20:56.825Z,46.31
2022-08-12T03:23:30.301Z,46.28
2022-08-12T03:26:02.906Z,46.39
2022-08-12T03:28:52.991Z,46.61
2022-08-12T03:31:22.833Z,46.27
2022-08-12T03:34:01.911Z,46.45
2022-08-12T03:36:36.022Z,46.45
2022-08-12T03:39:18.836Z,46.52
2022-08-12T03:42:24.194Z,46.59
2022-08-12T03:45:51.547Z,47.00
2022-08-12T03:48:38.491Z,47.10
2022-08-12T03:51:24.355Z,47.05
2022-08-12T03:54:11.447Z,47.18
2022-08-12T03:56:57.611Z,47.42
2022-08-12T03:59:42.595Z,47.51
2022-08-12T04:02:14.751Z,47.39
2022-08-12T04:04:45.363Z,47.84
2022-08-12T04:07:13.358Z,47.82
2022-08-12T04:09:42.251Z,47.92
2022-08-12T04:12:40.178Z,48.35
2022-08-12T04:15:12.893Z,48.29
2022-08-12T04:18:06.375Z,48.30
2022-08-12T04:20:27.992Z,48.24
2022-08-12T04:22:55.817Z,48.61
2022-08-12T04:25:25.321Z,48.78
2022-08-12T04:27:51.961Z,48.81
2022-08-12T04:30:31.839Z,49.10
2022-08-12T04:33:00.886Z,48.75
2022-08-12T04:35:28.338Z,49.36
2022-08-12T04:37:59.045Z,49.59
2022-08-12T04:40:30.688Z,49.78
2022-08-12T04:42:57.792Z,49.51
2022-08-12T04:45:25.040Z,49.36
2022-08-12T04:47:52.483Z,49.45
2022-08-12T04:50:34.399Z,49.46
2022-08-12T04:53:08.868Z,49.42
2022-08-12T04:55:38.634Z,49.24
2022-08-12T04:58:08.517Z,49.50
2022-08-12T05:00:36.069Z,49.45
2022-08-12T05:03:04.472Z,49.55
2022-08-12T05:05:36.040Z,49.07
2022-08-12T05:08:04.145Z,48.88
2022-08-12T05:10:33.710Z,48.79
2022-08-12T05:13:22.341Z,48.97
2022-08-12T05:16:03.767Z,49.04
2022-08-12T05:18:33.358Z,49.27
2022-08-12T05:21:02.099Z,49.16
2022-08-12T05:23:28.935Z,49.02
2022-08-12T05:25:57.105Z,49.06
2022-08-12T05:28:26.965Z,48.61
2022-08-12T05:30:54.267Z,48.34
2022-08-12T05:33:21.043Z,47.99
2022-08-12T05:35:50.243Z,47.99
2022-08-12T05:38:38.074Z,48.24
2022-08-12T05:41:07.033Z,48.06
2022-08-12T05:43:35.657Z,47.58
2022-08-12T05:46:02.494Z,47.58
2022-08-12T05:48:30.853Z,47.08
2022-08-12T05:50:57.792Z,47.12
2022-08-12T05:53:24.791Z,46.66
2022-08-12T05:55:53.701Z,47.01
2022-08-12T05:58:21.206Z,46.25
2022-08-12T06:00:48.229Z,46.26
2022-08-12T06:03:19.455Z,46.04
2022-08-12T06:05:54.772Z,45.58
2022-08-12T06:08:22.812Z,45.23
2022-08-12T06:10:52.103Z,45.16
2022-08-12T06:13:27.912Z,45.31
2022-08-12T06:15:56.121Z,45.19
2022-08-12T06:18:27.733Z,44.40
2022-08-12T06:21:01.592Z,44.36
2022-08-12T06:23:29.651Z,44.10
2022-08-12T06:25:56.878Z,43.96
2022-08-12T06:28:24.164Z,43.42
2022-08-12T06:31:15.307Z,43.67
2022-08-12T06:33:59.527Z,43.52
2022-08-12T06:36:32.626Z,43.08
2022-08-12T06:39:01.059Z,42.95
2022-08-12T06:42:02.426Z,43.22
2022-08-12T06:44:33.353Z,43.12
2022-08-12T06:47:00.316Z,43.20
2022-08-12T06:49:28.450Z,42.78
2022-08-12T06:51:56.609Z,42.51
2022-08-12T06:54:31.189Z,42.09
2022-08-12T06:57:04.196Z,42.44
2022-08-12T06:59:32.401Z,42.67
2022-08-12T07:01:59.353Z,42.18
2022-08-12T07:04:41.525Z,42.73
2022-08-12T07:07:09.714Z,42.32
2022-08-12T07:10:04.858Z,41.62
2022-08-12T07:12:36.570Z,41.90
2022-08-12T07:15:04.405Z,41.30
2022-08-12T07:17:37.258Z,40.97
2022-08-12T07:20:09.881Z,41.43
2022-08-12T07:22:37.640Z,40.14
2022-08-12T07:25:23.179Z,40.37
2022-08-12T07:27:54.500Z,40.52
2022-08-12T07:30:23.063Z,39.98
2022-08-12T07:32:51.532Z,40.42
2022-08-12T07:35:19.544Z,40.36
2022-08-12T07:37:47.357Z,39.95
2022-08-12T07:40:15.312Z,38.99
2022-08-12T07:42:43.787Z,39.50
2022-08-12T07:45:12.297Z,38.87
2022-08-12T07:47:43.299Z,39.03
2022-08-12T07:50:12.613Z,39.52
2022-08-12T07:52:42.561Z,38.57
2022-08-12T07:55:11.053Z,38.85
2022-08-12T07:57:57.931Z,39.11
2022-08-12T08:00:26.118Z,38.38
2022-08-12T08:02:54.257Z,38.29
2022-08-12T08:05:22.970Z,37.92
2022-08-12T08:07:49.657Z,37.40
2022-08-12T08:10:16.934Z,37.47
2022-08-12T08:12:58.825Z,37.09
2022-08-12T08:18:26.377Z,36.67
2022-08-12T08:20:56.024Z,36.93
2022-08-12T08:23:34.840Z,36.79
2022-08-12T08:26:01.971Z,36.09
2022-08-12T08:28:29.262Z,36.36
2022-08-12T08:30:55.808Z,36.49
2022-08-12T08:34:09.368Z,35.70
2022-08-12T08:36:16.237Z,35.81
2022-08-12T08:38:55.019Z,35.58
2022-08-12T08:42:15.895Z,36.28
2022-08-12T08:44:33.246Z,34.74
2022-08-12T08:47:03.400Z,35.20
2022-08-12T08:49:29.994Z,34.68
2022-08-12T08:51:56.725Z,34.49
2022-08-12T08:54:24.740Z,34.57
2022-08-12T08:56:52.336Z,34.65
2022-08-12T08:59:19.913Z,34.87
2022-08-12T09:01:47.628Z,33.84
2022-08-12T09:05:07.237Z,34.17
2022-08-12T09:07:17.948Z,33.93
2022-08-12T09:10:02.487Z,34.14
2022-08-12T09:12:51.578Z,34.25
2022-08-12T09:15:21.729Z,34.07
2022-08-12T09:17:59.343Z,33.25
2022-08-12T09:20:29.442Z,32.65
2022-08-12T09:22:57.982Z,32.26
2022-08-12T09:25:32.550Z,33.64
2022-08-12T09:28:04.925Z,33.16
2022-08-12T09:30:41.744Z,33.47
2022-08-12T09:33:15.124Z,32.86
2022-08-12T09:35:46.885Z,32.20
2022-08-12T09:38:35.234Z,32.15
2022-08-12T09:42:32.975Z,32.10
2022-08-12T09:44:37.835Z,32.25
2022-08-12T09:46:55.199Z,31.88
2022-08-12T09:49:29.249Z,31.85
2022-08-12T09:51:57.235Z,31.80
2022-08-12T09:54:34.086Z,31.42
2022-08-12T09:58:46.158Z,31.70
2022-08-12T10:00:14.634Z,30.86
2022-08-12T10:03:06.218Z,30.93
2022-08-12T10:06:26.729Z,31.46
2022-08-12T10:08:27.462Z,30.87
2022-08-12T10:11:20.538Z,30.94
2022-08-12T10:13:50.118Z,30.73
2022-08-12T10:16:23.118Z,30.58
2022-08-12T10:18:57.730Z,30.81
2022-08-12T10:21:35.671Z,30.39
2022-08-12T10:24:07.463Z,30.31
2022-08-12T10:26:53.649Z,30.45
2022-08-12T10:30:37.384Z,30.18
2022-08-12T10:32:44.546Z,30.03
2022-08-12T10:35:15.432Z,30.51
2022-08-12T10:38:36.336Z,30.09
2022-08-12T10:40:34.003Z,30.47
2022-08-12T10:43:21.504Z,29.86
2022-08-12T10:45:49.568Z,29.73
2022-08-12T10:48:27.023Z,30.19
2022-08-12T10:51:51.601Z,29.89
2022-08-12T10:53:54.237Z,29.14
2022-08-12T10:56:27.670Z,29.07
2022-08-12T10:59:02.149Z,28.83
2022-08-12T11:04:16.806Z,29.44
2022-08-12T11:04:37.157Z,28.63
2022-08-12T11:08:33.973Z,28.49
2022-08-12T11:09:55.973Z,28.97
2022-08-12T11:12:56.675Z,28.93
2022-08-12T11:15:21.099Z,28.68
2022-08-12T11:17:53.779Z,28.23
2022-08-12T11:20:24.403Z,28.26
2022-08-12T11:22:59.646Z,28.13
2022-08-12T11:25:42.241Z,28.56
2022-08-12T11:28:14.921Z,28.39
2022-08-12T11:30:43.186Z,28.16
2022-08-12T11:33:11.668Z,27.92
2022-08-12T11:35:42.876Z,28.13
2022-08-12T11:38:11.160Z,27.41
2022-08-12T11:40:38.030Z,26.78
2022-08-12T11:43:19.726Z,27.64
2022-08-12T11:45:47.713Z,26.71
2022-08-12T11:48:20.346Z,26.83
2022-08-12T11:50:54.368Z,26.58
2022-08-12T11:53:57.662Z,26.91
2022-08-12T11:56:07.811Z,27.38
2022-08-12T12:01:58.209Z,26.90
2022-08-12T12:02:00.875Z,27.17
2022-08-12T12:04:10.956Z,26.64
2022-08-12T12:06:37.443Z,26.25
2022-08-12T12:09:04.585Z,26.52
2022-08-12T12:11:48.555Z,26.25
2022-08-12T12:14:15.859Z,26.34
2022-08-12T12:16:50.052Z,26.67
2022-08-12T12:19:19.021Z,26.15
2022-08-12T12:21:48.695Z,26.80
2022-08-12T12:24:21.419Z,27.14
2022-08-12T12:27:00.411Z,27.64
2022-08-12T12:30:18.138Z,27.94
2022-08-12T12:32:18.575Z,27.01
2022-08-12T12:35:44.554Z,26.32
2022-08-12T12:38:03.558Z,27.09
2022-08-12T12:40:18.804Z,27.06
2022-08-12T12:42:54.606Z,27.85
2022-08-12T12:45:26.168Z,27.82
2022-08-12T12:47:56.995Z,28.51
2022-08-12T12:50:35.446Z,28.68
2022-08-12T12:54:05.847Z,28.49
2022-08-12T12:55:58.891Z,28.55
2022-08-12T12:58:25.515Z,28.51
2022-08-12T13:00:53.838Z,28.55
2022-08-12T13:03:21.917Z,27.78
2022-08-12T13:05:53.885Z,27.14
2022-08-12T13:08:28.215Z,27.22
2022-08-12T13:11:04.037Z,27.62
2022-08-12T13:14:10.253Z,27.42
2022-08-12T13:16:23.237Z,27.52
2022-08-12T13:18:51.418Z,28.01
2022-08-12T13:21:33.208Z,28.26
2022-08-12T13:24:09.841Z,27.38
2022-08-12T13:26:39.864Z,27.06
2022-08-12T13:29:06.290Z,26.57
2022-08-12T13:32:13.475Z,25.79
2022-08-12T13:34:33.517Z,25.67
2022-08-12T13:37:04.622Z,25.66
2022-08-12T13:39:36.322Z,25.94
2022-08-12T13:42:02.793Z,25.52
2022-08-12T13:44:30.139Z,25.92
2022-08-12T13:46:58.763Z,25.66
2022-08-12T13:49:54.941Z,25.40
2022-08-12T13:52:13.812Z,25.24
2022-08-12T13:54:40.383Z,25.56
2022-08-12T13:57:10.944Z,25.14
2022-08-12T13:59:48.203Z,25.41
2022-08-12T14:02:15.019Z,25.69
2022-08-12T14:04:45.384Z,26.14
2022-08-12T14:07:23.854Z,26.64
2022-08-12T14:10:11.686Z,27.27
2022-08-12T14:12:53.975Z,27.61
2022-08-12T14:15:21.428Z,27.62
2022-08-12T14:18:14.053Z,27.32
2022-08-12T14:20:47.606Z,27.33
2022-08-12T14:24:05.835Z,27.29
2022-08-12T14:26:05.244Z,27.19
2022-08-12T14:28:34.823Z,25.68
2022-08-12T14:31:18.504Z,26.07
2022-08-12T14:33:48.793Z,25.90
2022-08-12T14:36:20.562Z,25.98
2022-08-12T14:38:49.444Z,25.72
2022-08-12T14:41:21.350Z,25.33
2022-08-12T14:44:04.798Z,25.96
2022-08-12T14:46:37.645Z,25.44
2022-08-12T14:49:27.371Z,25.94
2022-08-12T14:52:44.123Z,26.14
2022-08-12T14:57:24.583Z,25.16
2022-08-12T15:00:22.865Z,24.61
2022-08-12T15:02:53.139Z,25.49
2022-08-12T15:06:05.435Z,26.03
2022-08-12T15:08:11.790Z,26.50
2022-08-12T15:10:43.574Z,27.46
2022-08-12T15:13:22.377Z,27.40
2022-08-12T15:15:50.052Z,27.58
2022-08-12T15:18:21.766Z,27.71
2022-08-12T15:20:54.794Z,26.73
2022-08-12T15:23:23.536Z,26.88
2022-08-12T15:26:02.706Z,26.61
2022-08-12T15:28:32.854Z,27.32
2022-08-12T15:31:00.807Z,27.39
2022-08-12T15:33:37.834Z,27.43
2022-08-12T15:36:13.865Z,26.58
2022-08-12T15:38:40.928Z,26.44
2022-08-12T15:41:08.529Z,25.54
2022-08-12T15:44:14.130Z,25.71
2022-08-12T15:46:25.808Z,25.01
2022-08-12T15:48:52.294Z,24.88
2022-08-12T15:51:57.383Z,25.85
2022-08-12T15:54:35.076Z,26.26
2022-08-12T15:57:05.654Z,26.91
2022-08-12T15:59:52.034Z,26.91
2022-08-12T16:02:22.206Z,27.28
2022-08-12T16:04:53.267Z,27.25
2022-08-12T16:07:29.906Z,27.40
2022-08-12T16:10:08.789Z,27.65
2022-08-12T16:12:54.301Z,27.74
2022-08-12T16:15:23.718Z,27.32
2022-08-12T16:18:18.615Z,27.70
2022-08-12T16:20:38.666Z,27.86
2022-08-12T16:23:26.846Z,27.68
2022-08-12T16:26:05.937Z,27.57
2022-08-12T16:28:41.588Z,27.50
2022-08-12T16:31:14.488Z,27.73
2022-08-12T16:33:58.707Z,27.93
2022-08-12T16:36:28.556Z,27.67
2022-08-12T16:38:55.003Z,28.28
2022-08-12T16:41:22.502Z,27.98
2022-08-12T16:43:49.315Z,27.66
2022-08-12T16:46:31.185Z,27.50
2022-08-12T16:48:58.293Z,28.16
2022-08-12T16:51:26.466Z,28.10
2022-08-12T16:53:52.923Z,27.88
2022-08-12T16:56:19.432Z,28.04
2022-08-12T16:58:49.171Z,27.74
2022-08-12T17:01:19.663Z,27.83
2022-08-12T17:04:08.251Z,28.35
2022-08-12T17:06:35.951Z,28.02
2022-08-12T17:09:08.808Z,28.29
2022-08-12T17:11:44.098Z,27.97
2022-08-12T17:14:10.530Z,28.29
2022-08-12T17:16:40.264Z,28.13
2022-08-12T17:19:09.172Z,28.06
2022-08-12T17:21:41.565Z,28.52
2022-08-12T17:24:21.388Z,28.13
2022-08-12T17:26:49.843Z,27.99
2022-08-12T17:29:24.288Z,28.46
2022-08-12T17:32:08.601Z,28.09
2022-08-12T17:34:54.514Z,28.33
2022-08-12T17:37:21.178Z,28.20
2022-08-12T17:40:16.018Z,28.35
2022-08-12T17:42:35.524Z,27.92
2022-08-12T17:45:16.989Z,27.85
2022-08-12T17:47:44.461Z,27.98
2022-08-12T17:50:12.918Z,27.90
2022-08-12T17:52:40.258Z,26.69
2022-08-12T17:55:31.315Z,24.93
2022-08-12T17:57:57.222Z,24.20
2022-08-12T18:00:28.511Z,22.92
2022-08-12T18:02:58.087Z,23.20
2022-08-12T18:05:25.747Z,22.39
2022-08-12T18:08:12.446Z,22.41
2022-08-12T18:10:58.454Z,24.52
2022-08-12T18:13:42.576Z,25.96
2022-08-12T18:16:12.639Z,26.95
2022-08-12T18:18:41.827Z,27.43
2022-08-12T18:21:08.679Z,27.98
2022-08-12T18:23:40.114Z,28.27
2022-08-12T18:26:23.489Z,28.21
2022-08-12T18:28:54.480Z,28.92
2022-08-12T18:31:44.530Z,28.95
2022-08-12T18:34:23.945Z,29.04
2022-08-12T18:36:55.579Z,29.09
2022-08-12T18:39:22.540Z,29.01
2022-08-12T18:41:51.498Z,29.27
2022-08-12T18:44:19.240Z,29.30
2022-08-12T18:46:59.644Z,29.56
2022-08-12T18:49:33.347Z,29.80
2022-08-12T18:52:05.239Z,30.12
2022-08-12T18:54:53.981Z,29.89
2022-08-12T18:58:07.398Z,30.53
2022-08-12T19:00:18.823Z,30.47
2022-08-12T19:02:53.384Z,30.62
2022-08-12T19:05:20.482Z,30.33
2022-08-12T19:07:59.961Z,30.76
2022-08-12T19:10:30.206Z,30.62
2022-08-12T19:13:23.324Z,30.63
2022-08-12T19:15:53.443Z,31.12
2022-08-12T19:18:22.007Z,30.86
2022-08-12T19:20:50.617Z,31.29
2022-08-12T19:23:21.082Z,30.95
2022-08-12T19:26:00.387Z,31.31
2022-08-12T19:28:30.352Z,31.05
2022-08-12T19:31:45.049Z,31.37
2022-08-12T19:36:08.324Z,31.28
2022-08-12T19:37:38.613Z,31.52
2022-08-12T19:40:20.594Z,31.63
2022-08-12T19:43:20.290Z,31.72
2022-08-12T19:45:54.455Z,31.77
2022-08-12T19:48:27.601Z,31.82
2022-08-12T19:50:57.389Z,31.87
2022-08-12T19:53:27.729Z,32.38
2022-08-12T19:55:57.465Z,32.51
2022-08-12T19:58:25.405Z,31.96
2022-08-12T20:00:54.602Z,32.41
2022-08-12T20:03:38.033Z,32.71
2022-08-12T20:06:13.374Z,32.90
2022-08-12T20:08:45.504Z,32.84
2022-08-12T20:12:15.041Z,33.21
2022-08-12T20:14:04.810Z,33.51
2022-08-12T20:19:53.227Z,33.44
2022-08-12T20:22:24.457Z,33.77
2022-08-12T20:24:58.279Z,33.55
2022-08-12T20:28:05.038Z,33.92
2022-08-12T20:30:20.225Z,33.80
2022-08-12T20:32:55.471Z,34.09
2022-08-12T20:35:24.604Z,34.28
2022-08-12T20:38:06.388Z,34.61
2022-08-12T20:40:42.087Z,34.39
2022-08-12T20:43:15.776Z,34.64
2022-08-12T20:45:51.149Z,34.59
2022-08-12T20:48:25.206Z,34.84
2022-08-12T20:50:53.556Z,35.03
2022-08-12T20:53:28.903Z,35.05
2022-08-12T20:56:30.704Z,35.10
2022-08-12T20:59:01.023Z,35.64
2022-08-12T21:01:46.466Z,35.35
2022-08-12T21:04:35.365Z,35.77
2022-08-12T21:07:09.021Z,36.05
2022-08-12T21:09:44.307Z,35.91
2022-08-12T21:12:28.040Z,36.51
2022-08-12T21:15:24.154Z,36.41
2022-08-12T21:18:10.933Z,36.51
2022-08-12T21:20:52.182Z,36.47
2022-08-12T21:23:21.705Z,36.43
2022-08-12T21:25:51.218Z,36.89
2022-08-12T21:28:20.827Z,36.92
2022-08-12T21:32:34.884Z,37.36
2022-08-12T21:33:58.534Z,37.34
2022-08-12T21:36:32.413Z,37.48
2022-08-12T21:39:19.258Z,37.78
2022-08-12T21:41:51.682Z,37.84
2022-08-12T21:44:24.116Z,37.91
2022-08-12T21:47:21.316Z,38.10
2022-08-12T21:50:03.087Z,38.23
2022-08-12T21:52:35.825Z,38.15
2022-08-12T21:55:08.316Z,38.27
2022-08-12T21:57:51.006Z,38.50
2022-08-12T22:00:33.328Z,38.31
2022-08-12T22:03:30.394Z,38.93
2022-08-12T22:06:30.741Z,38.79
2022-08-12T22:09:09.036Z,38.99
2022-08-12T22:11:49.405Z,39.06
2022-08-12T22:14:24.189Z,39.09
2022-08-12T22:16:52.943Z,39.27
2022-08-12T22:19:21.115Z,38.97
2022-08-12T22:21:53.745Z,39.20
2022-08-12T22:24:26.584Z,39.33
2022-08-12T22:27:31.391Z,39.73
2022-08-12T22:30:16.606Z,39.44
2022-08-12T22:32:49.999Z,39.48
2022-08-12T22:35:56.639Z,39.93
2022-08-12T22:38:23.777Z,40.04
2022-08-12T22:40:58.533Z,40.16
2022-08-12T22:44:00.422Z,40.22
2022-08-12T22:46:52.637Z,40.37
2022-08-12T22:49:37.291Z,40.50
2022-08-12T22:52:13.464Z,40.11
2022-08-12T22:55:00.283Z,40.27
2022-08-12T22:57:49.183Z,40.66
2022-08-12T23:00:27.195Z,40.82
2022-08-12T23:03:00.627Z,41.32
2022-08-12T23:05:56.772Z,41.24
2022-08-12T23:08:17.885Z,40.97
2022-08-12T23:10:45.804Z,41.39
2022-08-12T23:13:42.946Z,41.36
2022-08-12T23:16:28.405Z,41.23
2022-08-12T23:19:01.603Z,41.43
2022-08-12T23:21:40.498Z,41.73
2022-08-12T23:24:26.228Z,41.72
2022-08-12T23:27:11.426Z,41.98
2022-08-12T23:29:43.836Z,41.89
2022-08-12T23:32:35.547Z,41.68
2022-08-12T23:35:05.128Z,42.19
2022-08-12T23:37:46.568Z,42.38
2022-08-12T23:40:17.845Z,42.73
2022-08-12T23:42:46.540Z,42.54
2022-08-12T23:45:20.608Z,43.14
2022-08-12T23:47:59.896Z,42.95
2022-08-12T23:50:33.974Z,43.50
2022-08-12T23:53:06.721Z,43.71
2022-08-12T23:55:49.871Z,43.81
2022-08-12T23:58:25.976Z,43.96
